Aérodrome :
LOGIN :

S'inscrire | Disclaimer

   EN    FR    IT 

 










Légende :    VFR   VFR Marginal   IFR   IFR Intensif   IFR Très Intensif
Visi : 
Plafond : 
>= 8 km
>= 3000ft
5 à 8 km
1000 à 3000 ft
1500m à 5 km
500 à 1000 ft
800 à 1500m
200 à 500 ft
< 800m
< 200 ft
Symboles :   Orages  Brouillard  Fortes neiges  Fortes précipitations  Vent > 20 kt
SIGMETs :   Divers  Orages  Givrage  Turbulence  Onde Orograph.  Cendres Volcan.






- Altitude de l'aérodrome : 359 ft
- Code IATA : BVA


LFOB - Beauvais

DERNIER METAR :
  • 051400Z AUTO 14009KT 9999 FEW021 OVC028 05/02 Q0993 NOSIG

METARs EXPIRÉS :
  • 051330Z AUTO 16008KT 9999 OVC019 05/02 Q0993 NOSIG
  • 051300Z AUTO 14010KT 9999 OVC021 05/02 Q0993 NOSIG
  • 051230Z AUTO 14011KT 9999 BKN023 OVC029 05/02 Q0993 NOSIG
  • 051200Z AUTO 16012KT 9999 OVC025 05/01 Q0993 NOSIG
  • 051130Z AUTO 15010KT 9999 OVC022 05/01 Q0993 NOSIG

TAF TAF LFOB
Valide du 05 à 12h jusqu'au 06 à 12h UTC


051100Z 0512/0612 16012KT 9999 BKN025
TEMPO 0516/0520 4000 RA BKN013
BECMG 0600/0603 10007KT
ATIS : +33 3 44 11 49 28



MET'MAP, la Météo Aéronautique d'un coup d'oeil ! - Copyright ORBIFLY Décembre 2007 - Disclaimer

ORBIFLY MET'MAP TEAM :

Programmation & Développement : Alexandra Zaïnal
Sur une idée originale de : Baudouin d'Aumeries
Assistance à la programmation : Marc-Olivier Méhu
Soutien technique & logistique : Manuel Goepfert

Contact : metmap@orbifly.com




SOURCES & CREDITS :

   NOAA